createdAt,value
2022-10-28T00:01:03.633Z,96844.53
2022-10-28T00:03:31.375Z,96827.59
2022-10-28T00:06:04.745Z,96843.75
2022-10-28T00:08:32.867Z,96773.28
2022-10-28T00:11:05.966Z,96851.63
2022-10-28T00:13:34.092Z,96841.06
2022-10-28T00:16:07.049Z,96846.59
2022-10-28T00:18:34.830Z,96845.53
2022-10-28T00:21:06.397Z,96848.97
2022-10-28T00:23:34.387Z,96839.47
2022-10-28T00:26:07.464Z,96843.72
2022-10-28T00:28:35.295Z,96814.59
2022-10-28T00:31:07.489Z,96777.06
2022-10-28T00:33:35.415Z,96838.19
2022-10-28T00:36:13.385Z,96835.56
2022-10-28T00:38:42.040Z,96832.16
2022-10-28T00:41:10.802Z,96819.44
2022-10-28T00:43:41.143Z,96734.25
2022-10-28T00:46:17.798Z,96826.88
2022-10-28T00:48:48.644Z,96827.94
2022-10-28T00:51:19.990Z,96830.03
2022-10-28T00:53:49.158Z,96793.00
2022-10-28T00:56:18.254Z,96832.66
2022-10-28T00:58:49.036Z,96798.53
2022-10-28T01:01:16.969Z,96817.59
2022-10-28T01:03:44.782Z,96812.56
2022-10-28T01:06:12.658Z,96823.09
2022-10-28T01:08:41.720Z,96808.78
2022-10-28T01:11:31.599Z,96806.94
2022-10-28T01:14:20.223Z,96822.00
2022-10-28T01:17:01.731Z,96819.63
2022-10-28T01:19:57.888Z,96812.22
2022-10-28T01:22:29.177Z,96813.50
2022-10-28T01:25:27.930Z,96815.38
2022-10-28T01:28:10.117Z,96729.81
2022-10-28T01:30:57.350Z,96675.81
2022-10-28T01:33:30.676Z,96823.47
2022-10-28T01:36:06.119Z,96817.59
2022-10-28T01:38:40.700Z,96816.00
2022-10-28T01:41:13.013Z,96824.44
2022-10-28T01:43:49.867Z,96822.53
2022-10-28T01:46:26.737Z,96824.59
2022-10-28T01:48:58.261Z,96818.00
2022-10-28T01:51:30.326Z,96821.94
2022-10-28T01:54:02.194Z,96822.69
2022-10-28T01:56:34.016Z,96798.84
2022-10-28T01:59:04.273Z,96823.44
2022-10-28T02:01:35.112Z,96818.16
2022-10-28T02:04:03.365Z,96811.59
2022-10-28T02:06:34.720Z,96726.47
2022-10-28T02:09:11.026Z,96788.72
2022-10-28T02:11:54.878Z,96812.25
2022-10-28T02:14:39.158Z,96809.88
2022-10-28T02:17:14.630Z,96811.41
2022-10-28T02:19:50.400Z,96812.72
2022-10-28T02:22:23.572Z,96806.91
2022-10-28T02:25:01.394Z,96807.69
2022-10-28T02:27:35.070Z,96809.28
2022-10-28T02:30:06.925Z,96789.84
2022-10-28T02:32:41.009Z,96809.19
2022-10-28T02:35:13.155Z,96813.19
2022-10-28T02:37:42.613Z,96808.72
2022-10-28T02:40:16.208Z,96801.06
2022-10-28T02:42:48.369Z,96790.41
2022-10-28T02:45:19.259Z,96795.50
2022-10-28T02:47:56.103Z,96792.09
2022-10-28T02:50:31.380Z,96803.41
2022-10-28T02:53:03.556Z,96712.78
2022-10-28T02:55:39.231Z,96791.78
2022-10-28T02:58:07.563Z,96700.69
2022-10-28T03:00:35.204Z,96796.78
2022-10-28T03:03:05.054Z,96796.22
2022-10-28T03:05:32.738Z,96766.28
2022-10-28T03:08:00.380Z,96741.66
2022-10-28T03:10:28.016Z,96730.78
2022-10-28T03:12:55.756Z,96796.72
2022-10-28T03:15:23.423Z,96794.56
2022-10-28T03:17:51.452Z,96787.63
2022-10-28T03:20:20.794Z,96800.34
2022-10-28T03:22:48.460Z,96771.66
2022-10-28T03:25:16.257Z,96798.50
2022-10-28T03:27:44.000Z,96706.34
2022-10-28T03:30:12.226Z,96801.06
2022-10-28T03:32:42.739Z,96797.91
2022-10-28T03:35:10.691Z,96802.13
2022-10-28T03:37:42.428Z,96796.38
2022-10-28T03:40:11.130Z,96797.66
2022-10-28T03:42:40.416Z,96783.38
2022-10-28T03:45:09.332Z,96791.56
2022-10-28T03:47:37.433Z,96776.16
2022-10-28T03:50:05.370Z,96793.09
2022-10-28T03:52:33.000Z,96792.53
2022-10-28T03:55:02.088Z,96799.88
2022-10-28T03:57:31.418Z,96802.78
2022-10-28T03:59:59.114Z,96697.59
2022-10-28T04:02:27.605Z,96798.47
2022-10-28T04:04:55.366Z,96801.44
2022-10-28T04:07:23.774Z,96804.31
2022-10-28T04:09:51.500Z,96797.72
2022-10-28T04:12:20.518Z,96791.66
2022-10-28T04:14:50.289Z,96775.75
2022-10-28T04:17:18.393Z,96795.63
2022-10-28T04:19:46.052Z,96794.78
2022-10-28T04:22:13.752Z,96642.47
2022-10-28T04:24:41.420Z,96789.44
2022-10-28T04:27:09.119Z,96792.38
2022-10-28T04:29:38.159Z,96790.75
2022-10-28T04:32:05.886Z,96797.63
2022-10-28T04:34:33.553Z,96794.66
2022-10-28T04:37:01.226Z,96785.06
2022-10-28T04:39:28.853Z,96800.47
2022-10-28T04:41:56.493Z,96804.41
2022-10-28T04:44:24.306Z,96799.91
2022-10-28T04:46:53.316Z,96803.31
2022-10-28T04:49:20.977Z,96668.69
2022-10-28T04:51:48.638Z,96796.41
2022-10-28T04:54:16.445Z,96795.59
2022-10-28T04:56:44.124Z,96791.66
2022-10-28T04:59:11.964Z,96795.59
2022-10-28T05:01:39.794Z,96770.66
2022-10-28T05:04:09.178Z,96761.78
2022-10-28T05:06:36.817Z,96795.06
2022-10-28T05:09:04.858Z,96774.16
2022-10-28T05:11:32.523Z,96784.41
2022-10-28T05:14:00.234Z,96782.78
2022-10-28T05:16:27.872Z,96766.06
2022-10-28T05:18:55.617Z,96775.19
2022-10-28T05:21:24.656Z,96694.53
2022-10-28T05:23:52.367Z,96707.56
2022-10-28T05:26:20.493Z,96770.91
2022-10-28T05:28:51.078Z,96776.47
2022-10-28T05:31:18.923Z,96732.06
2022-10-28T05:33:46.639Z,96781.50
2022-10-28T05:36:14.343Z,96774.94
2022-10-28T05:38:45.332Z,96765.63
2022-10-28T05:41:13.046Z,96783.97
2022-10-28T05:43:40.713Z,96765.72
2022-10-28T05:46:08.373Z,96773.66
2022-10-28T05:48:37.130Z,96711.03
2022-10-28T05:51:05.022Z,96780.00
2022-10-28T05:53:32.780Z,96699.19
2022-10-28T05:56:01.794Z,96775.25
2022-10-28T05:58:29.497Z,96791.34
2022-10-28T06:00:57.140Z,96805.00
2022-10-28T06:03:30.067Z,96728.97
2022-10-28T06:05:59.594Z,96807.84
2022-10-28T06:08:27.378Z,96784.78
2022-10-28T06:10:54.430Z,96799.97
2022-10-28T06:13:23.734Z,96801.78
2022-10-28T06:15:51.925Z,96805.16
2022-10-28T06:18:19.781Z,96783.09
2022-10-28T06:20:52.574Z,96798.78
2022-10-28T06:23:20.241Z,96807.59
2022-10-28T06:25:47.927Z,96813.41
2022-10-28T06:28:15.817Z,96805.53
2022-10-28T06:30:44.794Z,96806.66
2022-10-28T06:33:12.432Z,96799.16
2022-10-28T06:35:40.091Z,96808.78
2022-10-28T06:38:09.538Z,96804.09
2022-10-28T06:40:37.471Z,96787.66
2022-10-28T06:43:06.780Z,96802.59
2022-10-28T06:45:35.122Z,96799.50
2022-10-28T06:48:07.532Z,96804.00
2022-10-28T06:50:36.132Z,96805.94
2022-10-28T06:53:04.257Z,96816.03
2022-10-28T06:55:32.173Z,96822.63
2022-10-28T06:58:01.220Z,96791.91
2022-10-28T07:03:02.675Z,96817.16
2022-10-28T07:05:31.900Z,96806.56
2022-10-28T07:07:59.619Z,96819.84
2022-10-28T07:10:27.352Z,96828.34
2022-10-28T07:12:55.350Z,96828.38
2022-10-28T07:15:23.477Z,96835.34
2022-10-28T07:17:53.775Z,96840.09
2022-10-28T07:20:21.551Z,96841.69
2022-10-28T07:22:56.916Z,96832.44
2022-10-28T07:25:24.647Z,96823.19
2022-10-28T07:27:52.705Z,96730.56
2022-10-28T07:30:20.618Z,96851.66
2022-10-28T07:32:48.323Z,96810.97
2022-10-28T07:35:16.087Z,96853.66
2022-10-28T07:37:43.784Z,96853.22
2022-10-28T07:40:13.304Z,96852.22
2022-10-28T07:42:40.960Z,96854.94
2022-10-28T07:45:09.239Z,96861.03
2022-10-28T07:47:36.900Z,96832.22
2022-10-28T07:50:05.704Z,96855.03
2022-10-28T07:52:33.854Z,96837.59
2022-10-28T07:55:01.517Z,96853.72
2022-10-28T07:57:30.691Z,96858.22
2022-10-28T07:59:58.435Z,96850.28
2022-10-28T08:02:26.703Z,96850.25
2022-10-28T08:04:55.871Z,96843.09
2022-10-28T08:07:23.916Z,96848.00
2022-10-28T08:09:53.225Z,96854.03
2022-10-28T08:12:21.020Z,96828.38
2022-10-28T08:14:50.152Z,96861.00
2022-10-28T08:17:17.934Z,96849.53
2022-10-28T08:19:45.592Z,96859.19
2022-10-28T08:22:13.252Z,96856.28
2022-10-28T08:24:40.886Z,96781.00
2022-10-28T08:27:08.585Z,96846.94
2022-10-28T08:29:36.255Z,96823.72
2022-10-28T08:32:05.361Z,96851.16
2022-10-28T08:34:33.077Z,96856.59
2022-10-28T08:37:00.763Z,96830.91
2022-10-28T08:39:28.490Z,96845.56
2022-10-28T08:42:03.891Z,96838.38
2022-10-28T08:45:01.495Z,96841.97
2022-10-28T08:47:39.490Z,96819.47
2022-10-28T08:50:14.511Z,96852.72
2022-10-28T08:52:46.901Z,96848.41
2022-10-28T08:55:18.142Z,96846.00
2022-10-28T08:57:50.198Z,96840.97
2022-10-28T09:00:21.918Z,96815.81
2022-10-28T09:03:00.268Z,96849.19
2022-10-28T09:05:28.573Z,96855.56
2022-10-28T09:07:57.391Z,96864.28
2022-10-28T09:11:06.673Z,96783.47
2022-10-28T09:13:47.033Z,96859.06
2022-10-28T09:16:23.129Z,96833.09
2022-10-28T09:18:54.623Z,96842.00
2022-10-28T09:21:30.573Z,96838.25
2022-10-28T09:24:00.831Z,96841.91
2022-10-28T09:26:38.509Z,96843.41
2022-10-28T09:29:20.562Z,96833.94
2022-10-28T09:31:51.128Z,96841.06
2022-10-28T09:34:31.899Z,96830.53
2022-10-28T09:37:05.608Z,96826.59
2022-10-28T09:39:42.555Z,96833.63
2022-10-28T09:42:17.814Z,96831.63
2022-10-28T09:44:50.475Z,96837.56
2022-10-28T09:47:22.518Z,96838.13
2022-10-28T09:49:55.512Z,96829.06
2022-10-28T09:52:26.082Z,96816.34
2022-10-28T09:54:56.133Z,96832.25
2022-10-28T09:57:30.460Z,96836.13
2022-10-28T09:59:58.580Z,96834.91
2022-10-28T10:02:29.597Z,96832.78
2022-10-28T10:05:00.418Z,96836.31
2022-10-28T10:07:35.780Z,96833.16
2022-10-28T10:10:07.773Z,96831.19
2022-10-28T10:12:35.555Z,96799.31
2022-10-28T10:15:06.987Z,96820.28
2022-10-28T10:17:40.325Z,96806.44
2022-10-28T10:20:11.715Z,96779.22
2022-10-28T10:22:41.122Z,96828.94
2022-10-28T10:25:25.201Z,96825.47
2022-10-28T10:27:55.255Z,96786.41
2022-10-28T10:30:26.728Z,96828.69
2022-10-28T10:32:54.513Z,96817.94
2022-10-28T10:35:25.950Z,96819.63
2022-10-28T10:37:56.895Z,96820.84
2022-10-28T10:40:27.400Z,96797.34
2022-10-28T10:43:13.125Z,96815.13
2022-10-28T10:45:41.780Z,96815.22
2022-10-28T10:48:14.921Z,96817.63
2022-10-28T10:50:46.790Z,96817.50
2022-10-28T10:53:24.646Z,96797.09
2022-10-28T10:55:58.665Z,96816.50
2022-10-28T10:58:29.321Z,96795.41
2022-10-28T11:01:00.643Z,96813.66
2022-10-28T11:03:34.696Z,96799.66
2022-10-28T11:06:23.933Z,96791.81
2022-10-28T11:08:58.319Z,96781.91
2022-10-28T11:11:34.352Z,96706.84
2022-10-28T11:14:08.557Z,96788.88
2022-10-28T11:16:48.710Z,96785.84
2022-10-28T11:19:22.695Z,96787.38
2022-10-28T11:22:10.183Z,96774.97
2022-10-28T11:24:56.589Z,96779.53
2022-10-28T11:27:35.294Z,96784.84
2022-10-28T11:30:03.312Z,96694.91
2022-10-28T11:32:50.138Z,96776.00
2022-10-28T11:35:43.805Z,96765.41
2022-10-28T11:38:23.680Z,96705.84
2022-10-28T11:41:05.144Z,96761.38
2022-10-28T11:43:39.666Z,96742.81
2022-10-28T11:46:14.606Z,96686.56
2022-10-28T11:48:58.198Z,96756.88
2022-10-28T11:51:38.846Z,96685.06
2022-10-28T11:54:32.397Z,96742.16
2022-10-28T11:57:04.891Z,96738.66
2022-10-28T12:00:02.134Z,96744.59
2022-10-28T12:02:54.763Z,96746.63
2022-10-28T12:05:29.210Z,96693.19
2022-10-28T12:08:23.013Z,96746.47
2022-10-28T12:11:04.815Z,96737.47
2022-10-28T12:13:41.244Z,96741.44
2022-10-28T12:16:17.448Z,96741.00
2022-10-28T12:18:53.348Z,96715.34
2022-10-28T12:21:29.083Z,96738.22
2022-10-28T12:23:59.310Z,96635.44
2022-10-28T12:26:39.527Z,96652.69
2022-10-28T12:29:14.456Z,96710.91
2022-10-28T12:31:46.399Z,96627.47
2022-10-28T12:34:17.597Z,96703.81
2022-10-28T12:36:53.493Z,96714.94
2022-10-28T12:39:24.238Z,96625.69
2022-10-28T12:41:59.855Z,96657.34
2022-10-28T12:44:29.465Z,96712.50
2022-10-28T12:47:06.235Z,96726.06
2022-10-28T12:49:45.732Z,96722.28
2022-10-28T12:52:28.329Z,96711.00
2022-10-28T12:55:02.287Z,96710.22
2022-10-28T12:57:34.118Z,96711.91
2022-10-28T13:00:07.532Z,96691.28
2022-10-28T13:02:41.648Z,96574.13
2022-10-28T13:05:20.557Z,96669.47
2022-10-28T13:08:04.363Z,96627.34
2022-10-28T13:10:40.000Z,96571.78
2022-10-28T13:13:22.194Z,96698.41
2022-10-28T13:16:09.131Z,96699.53
2022-10-28T13:18:59.269Z,96682.31
2022-10-28T13:21:54.053Z,96680.88
2022-10-28T13:24:30.234Z,96688.47
2022-10-28T13:26:58.754Z,96618.22
2022-10-28T13:29:31.043Z,96576.94
2022-10-28T13:31:58.988Z,96700.50
2022-10-28T13:34:33.470Z,96702.06
2022-10-28T13:37:04.280Z,96688.19
2022-10-28T13:39:44.918Z,96699.38
2022-10-28T13:42:33.140Z,96697.09
2022-10-28T13:45:03.548Z,96676.25
2022-10-28T13:47:32.962Z,96699.44
2022-10-28T13:50:23.307Z,96698.44
2022-10-28T13:53:29.639Z,96695.41
2022-10-28T13:55:58.792Z,96691.78
2022-10-28T13:58:27.508Z,96694.38
2022-10-28T14:00:56.649Z,96694.69
2022-10-28T14:03:26.779Z,96691.94
2022-10-28T14:05:57.336Z,96644.47
2022-10-28T14:08:29.573Z,96699.91
2022-10-28T14:11:04.129Z,96549.00
2022-10-28T14:13:35.361Z,96673.91
2022-10-28T14:16:24.688Z,96698.16
2022-10-28T14:18:56.162Z,96701.50
2022-10-28T14:21:24.944Z,96647.06
2022-10-28T14:24:31.943Z,96694.31
2022-10-28T14:27:41.579Z,96702.34
2022-10-28T14:30:15.881Z,96685.53
2022-10-28T14:32:52.075Z,96703.66
2022-10-28T14:35:30.153Z,96700.38
2022-10-28T14:38:19.100Z,96704.38
2022-10-28T14:40:51.467Z,96606.31
2022-10-28T14:43:59.005Z,96694.53
2022-10-28T14:46:41.407Z,96696.28
2022-10-28T14:49:20.100Z,96688.75
2022-10-28T14:51:50.820Z,96683.59
2022-10-28T14:54:24.521Z,96693.66
2022-10-28T14:56:55.990Z,96696.09
2022-10-28T14:59:26.879Z,96699.56
2022-10-28T15:02:05.276Z,96690.16
2022-10-28T15:04:34.363Z,96696.66
2022-10-28T15:07:02.159Z,96694.16
2022-10-28T15:09:31.487Z,96689.16
2022-10-28T15:12:02.311Z,96677.69
2022-10-28T15:14:36.710Z,96587.06
2022-10-28T15:17:13.259Z,96680.88
2022-10-28T15:19:43.242Z,96694.88
2022-10-28T15:22:17.161Z,96691.91
2022-10-28T15:24:57.511Z,96699.31
2022-10-28T15:27:27.088Z,96695.22
2022-10-28T15:29:55.808Z,96647.28
2022-10-28T15:32:29.434Z,96680.31
2022-10-28T15:34:59.057Z,96696.63
2022-10-28T15:37:29.633Z,96671.50
2022-10-28T15:40:22.012Z,96693.03
2022-10-28T15:42:57.461Z,96694.28
2022-10-28T15:45:27.082Z,96693.47
2022-10-28T15:47:56.577Z,96692.06
2022-10-28T15:50:32.032Z,96675.88
2022-10-28T15:53:23.103Z,96692.22
2022-10-28T15:56:10.296Z,96688.28
2022-10-28T15:58:40.324Z,96693.56
2022-10-28T16:01:11.206Z,96675.31
2022-10-28T16:03:44.243Z,96690.22
2022-10-28T16:06:26.759Z,96624.41
2022-10-28T16:09:07.352Z,96694.44
2022-10-28T16:11:39.305Z,96691.44
2022-10-28T16:14:24.604Z,96687.00
2022-10-28T16:16:56.901Z,96692.91
2022-10-28T16:19:29.995Z,96667.09
2022-10-28T16:21:59.111Z,96579.25
2022-10-28T16:24:26.928Z,96679.78
2022-10-28T16:26:54.760Z,96546.19
2022-10-28T16:29:22.513Z,96615.25
2022-10-28T16:31:52.504Z,96694.19
2022-10-28T16:34:20.188Z,96688.66
2022-10-28T16:36:47.849Z,96691.19
2022-10-28T16:39:21.951Z,96698.19
2022-10-28T16:41:58.595Z,96651.69
2022-10-28T16:44:28.015Z,96705.25
2022-10-28T16:46:58.685Z,96693.00
2022-10-28T16:49:26.403Z,96660.75
2022-10-28T16:52:06.881Z,96673.88
2022-10-28T16:54:35.919Z,96660.44
2022-10-28T16:57:03.806Z,96697.59
2022-10-28T16:59:31.655Z,96540.38
2022-10-28T17:01:59.599Z,96574.47
2022-10-28T17:04:27.461Z,96599.41
2022-10-28T17:06:55.161Z,96690.22
2022-10-28T17:09:22.906Z,96673.41
2022-10-28T17:11:53.971Z,96615.91
2022-10-28T17:14:21.689Z,96583.97
2022-10-28T17:16:49.408Z,96713.94
2022-10-28T17:19:17.260Z,96706.16
2022-10-28T17:21:44.960Z,96602.13
2022-10-28T17:24:13.909Z,96696.94
2022-10-28T17:26:43.865Z,96710.13
2022-10-28T17:29:13.066Z,96712.44
2022-10-28T17:31:40.815Z,96696.13
2022-10-28T17:34:08.499Z,96677.88
2022-10-28T17:36:36.144Z,96724.72
2022-10-28T17:39:04.016Z,96678.78
2022-10-28T17:41:31.736Z,96585.94
2022-10-28T17:43:59.631Z,96714.47
2022-10-28T17:46:28.692Z,96642.00
2022-10-28T17:48:56.438Z,96639.72
2022-10-28T17:51:26.220Z,96708.34
2022-10-28T17:53:54.806Z,96710.22
2022-10-28T17:56:22.671Z,96726.16
2022-10-28T17:58:53.360Z,96703.59
2022-10-28T18:01:21.404Z,96708.13
2022-10-28T18:03:51.581Z,96702.19
2022-10-28T18:06:19.241Z,96712.28
2022-10-28T18:08:47.046Z,96707.81
2022-10-28T18:11:16.761Z,96706.25
2022-10-28T18:13:47.560Z,96629.53
2022-10-28T18:16:17.228Z,96717.50
2022-10-28T18:18:45.124Z,96703.00
2022-10-28T18:21:15.023Z,96637.53
2022-10-28T18:23:43.025Z,96630.03
2022-10-28T18:26:12.662Z,96714.22
2022-10-28T18:28:41.699Z,96702.69
2022-10-28T18:31:12.209Z,96716.09
2022-10-28T18:33:40.266Z,96717.75
2022-10-28T18:36:11.203Z,96720.69
2022-10-28T18:38:40.457Z,96718.34
2022-10-28T18:41:11.605Z,96713.19
2022-10-28T18:43:39.501Z,96703.53
2022-10-28T18:46:07.722Z,96727.38
2022-10-28T18:48:35.868Z,96725.91
2022-10-28T18:51:06.618Z,96735.25
2022-10-28T18:53:36.570Z,96724.31
2022-10-28T18:56:07.452Z,96737.63
2022-10-28T18:58:35.207Z,96734.25
2022-10-28T19:01:08.071Z,96724.53
2022-10-28T19:03:36.321Z,96726.06
2022-10-28T19:06:05.857Z,96737.22
2022-10-28T19:08:33.914Z,96709.38
2022-10-28T19:11:02.752Z,96735.06
2022-10-28T19:13:33.757Z,96748.41
2022-10-28T19:16:01.598Z,96742.59
2022-10-28T19:18:29.368Z,96660.78
2022-10-28T19:21:04.130Z,96752.97
2022-10-28T19:23:32.653Z,96761.22
2022-10-28T19:26:01.174Z,96664.25
2022-10-28T19:28:31.476Z,96701.81
2022-10-28T19:31:03.687Z,96745.34
2022-10-28T19:33:32.345Z,96745.75
2022-10-28T19:36:05.036Z,96746.16
2022-10-28T19:38:34.579Z,96734.81
2022-10-28T19:41:03.576Z,96744.56
2022-10-28T19:43:33.030Z,96744.56
2022-10-28T19:46:10.198Z,96740.03
2022-10-28T19:48:38.853Z,96742.69
2022-10-28T19:51:07.337Z,96746.22
2022-10-28T19:53:35.512Z,96748.84
2022-10-28T19:56:04.942Z,96741.78
2022-10-28T19:58:34.783Z,96724.81
2022-10-28T20:01:04.319Z,96739.19
2022-10-28T20:03:34.621Z,96739.19
2022-10-28T20:06:06.587Z,96735.94
2022-10-28T20:08:36.305Z,96742.34
2022-10-28T20:11:05.878Z,96738.34
2022-10-28T20:13:35.929Z,96748.09
2022-10-28T20:16:05.513Z,96741.91
2022-10-28T20:18:34.504Z,96734.81
2022-10-28T20:21:06.668Z,96742.78
2022-10-28T20:23:35.671Z,96735.78
2022-10-28T20:26:05.477Z,96690.31
2022-10-28T20:28:33.512Z,96740.41
2022-10-28T20:31:04.373Z,96745.50
2022-10-28T20:33:32.557Z,96671.41
2022-10-28T20:36:00.572Z,96745.00
2022-10-28T20:38:29.403Z,96732.56
2022-10-28T20:40:58.660Z,96745.63
2022-10-28T20:43:28.896Z,96734.38
2022-10-28T20:45:58.681Z,96760.28
2022-10-28T20:48:29.087Z,96763.03
2022-10-28T20:50:58.368Z,96756.13
2022-10-28T20:53:27.488Z,96752.06
2022-10-28T20:55:56.543Z,96757.81
2022-10-28T20:58:26.015Z,96753.25
2022-10-28T21:00:54.040Z,96751.91
2022-10-28T21:03:22.614Z,96730.53
2022-10-28T21:05:51.610Z,96741.19
2022-10-28T21:08:19.250Z,96751.28
2022-10-28T21:10:46.947Z,96732.16
2022-10-28T21:13:14.577Z,96750.91
2022-10-28T21:15:44.897Z,96748.03
2022-10-28T21:18:13.546Z,96738.13
2022-10-28T21:20:41.471Z,96722.28
2022-10-28T21:23:11.526Z,96737.66
2022-10-28T21:25:39.902Z,96741.88
2022-10-28T21:28:07.585Z,96731.94
2022-10-28T21:30:35.217Z,96742.78
2022-10-28T21:33:03.699Z,96749.72
2022-10-28T21:35:31.347Z,96755.88
2022-10-28T21:37:59.071Z,96759.09
2022-10-28T21:40:28.159Z,96753.16
2022-10-28T21:42:55.858Z,96737.72
2022-10-28T21:45:24.174Z,96665.25
2022-10-28T21:47:55.152Z,96627.09
2022-10-28T21:50:23.068Z,96740.59
2022-10-28T21:52:50.778Z,96746.81
2022-10-28T21:55:20.845Z,96748.59
2022-10-28T21:57:56.197Z,96639.34
2022-10-28T22:00:24.145Z,96726.78
2022-10-28T22:02:52.097Z,96720.78
2022-10-28T22:05:19.858Z,96739.31
2022-10-28T22:07:47.537Z,96732.53
2022-10-28T22:10:15.225Z,96733.63
2022-10-28T22:12:42.887Z,96731.06
2022-10-28T22:15:12.037Z,96737.94
2022-10-28T22:17:40.313Z,96734.47
2022-10-28T22:20:09.753Z,96731.13
2022-10-28T22:22:37.654Z,96733.31
2022-10-28T22:25:09.349Z,96717.09
2022-10-28T22:27:38.285Z,96738.53
2022-10-28T22:30:06.551Z,96711.59
2022-10-28T22:32:35.605Z,96738.78
2022-10-28T22:35:03.412Z,96663.44
2022-10-28T22:37:32.452Z,96714.41
2022-10-28T22:40:00.099Z,96735.28
2022-10-28T22:42:27.796Z,96759.19
2022-10-28T22:44:55.435Z,96745.41
2022-10-28T22:47:23.214Z,96744.63
2022-10-28T22:49:52.347Z,96687.94
2022-10-28T22:52:20.159Z,96601.59
2022-10-28T22:54:47.870Z,96656.34
2022-10-28T22:57:15.607Z,96741.56
2022-10-28T22:59:43.319Z,96737.84
2022-10-28T23:02:11.193Z,96642.22
2022-10-28T23:04:39.022Z,96742.69
2022-10-28T23:07:08.003Z,96745.59
2022-10-28T23:09:35.726Z,96735.59
2022-10-28T23:12:03.418Z,96631.47
2022-10-28T23:14:31.127Z,96718.22
2022-10-28T23:16:59.618Z,96623.31
2022-10-28T23:19:27.327Z,96731.97
2022-10-28T23:21:54.981Z,96744.69
2022-10-28T23:24:24.097Z,96745.22
2022-10-28T23:26:51.843Z,96741.53
2022-10-28T23:29:19.510Z,96737.56
2022-10-28T23:31:47.156Z,96743.16
2022-10-28T23:34:14.791Z,96739.44
2022-10-28T23:36:42.440Z,96646.59
2022-10-28T23:39:10.245Z,96728.94
2022-10-28T23:41:39.266Z,96732.66
2022-10-28T23:44:06.932Z,96734.75
2022-10-28T23:46:37.385Z,96712.56
2022-10-28T23:49:05.486Z,96732.16
2022-10-28T23:51:33.149Z,96724.72
2022-10-28T23:54:00.986Z,96727.84
2022-10-28T23:56:28.660Z,96735.78
2022-10-28T23:58:57.762Z,96731.59
